createdAt,value
2018-12-30T00:05:13.170Z,23.12
2018-12-30T00:10:31.627Z,16.30
2018-12-30T00:15:50.168Z,30.40
2018-12-30T00:21:09.093Z,23.38
2018-12-30T00:26:29.214Z,26.60
2018-12-30T00:31:49.338Z,27.33
2018-12-30T00:37:08.240Z,32.90
2018-12-30T00:42:26.713Z,23.50
2018-12-30T00:47:47.221Z,33.70
2018-12-30T00:53:05.680Z,26.83
2018-12-30T00:58:24.139Z,17.67
2018-12-30T01:03:44.319Z,20.73
2018-12-30T01:09:02.929Z,25.00
2018-12-30T01:14:21.390Z,18.23
2018-12-30T01:19:39.960Z,21.97
2018-12-30T01:24:58.445Z,17.33
2018-12-30T01:30:17.084Z,25.08
2018-12-30T01:35:35.999Z,17.00
2018-12-30T01:46:21.926Z,34.43
2018-12-30T01:51:40.397Z,27.30
2018-12-30T01:56:59.006Z,26.53
2018-12-30T02:02:17.472Z,28.62
2018-12-30T02:13:06.469Z,22.20
2018-12-30T02:18:24.951Z,22.80
2018-12-30T02:23:43.411Z,17.13
2018-12-30T02:29:01.946Z,18.70
2018-12-30T02:34:22.145Z,17.90
2018-12-30T02:39:40.605Z,27.27
2018-12-30T02:44:59.061Z,20.33
2018-12-30T02:55:48.051Z,20.27
2018-12-30T03:01:06.525Z,29.57
2018-12-30T03:06:24.991Z,26.07
2018-12-30T03:11:43.534Z,15.10
2018-12-30T03:17:02.138Z,29.77
2018-12-30T03:22:20.605Z,25.50
2018-12-30T03:27:39.136Z,20.37
2018-12-30T03:32:57.638Z,32.27
2018-12-30T03:38:16.232Z,25.07
2018-12-30T03:43:34.770Z,21.03
2018-12-30T03:49:33.139Z,13.87
2018-12-30T03:54:51.602Z,16.50
2018-12-30T04:00:10.212Z,28.73
2018-12-30T04:05:28.679Z,32.43
2018-12-30T04:10:47.159Z,21.93
2018-12-30T04:16:05.636Z,18.37
2018-12-30T04:21:24.171Z,17.87
2018-12-30T04:26:42.702Z,22.40
2018-12-30T04:32:01.290Z,27.87
2018-12-30T04:37:19.806Z,21.47
2018-12-30T04:42:38.283Z,30.97
2018-12-30T04:48:16.084Z,20.13
2018-12-30T04:53:34.550Z,23.30
2018-12-30T04:58:53.013Z,14.77
2018-12-30T05:04:11.549Z,23.10
2018-12-30T05:09:30.033Z,24.43
2018-12-30T05:14:48.498Z,23.30
2018-12-30T05:20:07.230Z,16.77
2018-12-30T05:25:25.766Z,25.33
2018-12-30T05:30:44.231Z,19.50
2018-12-30T05:36:02.800Z,19.83
2018-12-30T05:41:21.314Z,24.40
2018-12-30T05:46:39.861Z,19.87
2018-12-30T05:51:58.333Z,24.87
2018-12-30T05:57:16.890Z,24.47
2018-12-30T06:02:35.363Z,21.43
2018-12-30T06:07:53.868Z,30.57
2018-12-30T06:13:12.754Z,29.33
2018-12-30T06:18:31.301Z,34.47
2018-12-30T06:29:20.219Z,25.07
2018-12-30T06:34:38.711Z,21.80
2018-12-30T06:39:57.433Z,25.77
2018-12-30T06:45:15.970Z,25.02
2018-12-30T06:50:34.430Z,24.00
2018-12-30T06:55:52.907Z,31.10
2018-12-30T07:01:11.592Z,35.40
2018-12-30T07:06:30.058Z,33.13
2018-12-30T07:11:48.619Z,38.60
2018-12-30T07:17:07.153Z,25.97
2018-12-30T07:22:25.618Z,26.03
2018-12-30T07:27:44.150Z,18.40
2018-12-30T07:33:02.608Z,19.20
2018-12-30T07:38:21.308Z,25.13
2018-12-30T07:43:39.787Z,21.17
2018-12-30T07:48:58.321Z,36.73
2018-12-30T07:54:16.791Z,43.20
2018-12-30T07:59:56.037Z,34.03
2018-12-30T08:05:14.992Z,32.37
2018-12-30T08:10:33.456Z,26.33
2018-12-30T08:15:52.240Z,24.73
2018-12-30T08:21:10.785Z,21.75
2018-12-30T08:26:29.243Z,54.97
2018-12-30T08:31:47.729Z,23.40
2018-12-30T08:42:36.683Z,22.77
2018-12-30T08:47:55.514Z,17.60
2018-12-30T08:53:14.054Z,23.10
2018-12-30T08:58:32.522Z,23.27
2018-12-30T09:03:51.000Z,13.70
2018-12-30T09:09:09.539Z,21.40
2018-12-30T09:14:28.081Z,22.13
2018-12-30T09:19:46.838Z,20.03
2018-12-30T09:25:05.758Z,11.63
2018-12-30T09:30:24.306Z,16.47
2018-12-30T09:35:42.774Z,15.37
2018-12-30T09:41:01.242Z,20.97
2018-12-30T09:51:50.229Z,18.77
2018-12-30T09:57:08.980Z,13.97
2018-12-30T10:13:28.429Z,19.33
2018-12-30T10:18:46.898Z,19.80
2018-12-30T10:24:05.439Z,19.27
2018-12-30T10:29:23.910Z,25.33
2018-12-30T10:40:12.819Z,17.60
2018-12-30T10:45:31.300Z,17.93
2018-12-30T10:50:49.770Z,17.50
2018-12-30T11:01:40.755Z,18.33
2018-12-30T11:06:59.478Z,17.03
2018-12-30T11:18:07.788Z,26.63
2018-12-30T11:23:26.260Z,32.03
2018-12-30T11:28:45.080Z,26.00
2018-12-30T11:39:34.197Z,27.37
2018-12-30T11:44:52.658Z,24.20
2018-12-30T11:50:11.525Z,26.40
2018-12-30T11:55:29.983Z,31.20
2018-12-30T12:00:48.587Z,28.02
2018-12-30T12:06:07.089Z,26.57
2018-12-30T12:11:25.620Z,23.13
2018-12-30T12:17:03.778Z,23.83
2018-12-30T12:27:54.923Z,26.70
2018-12-30T12:33:13.495Z,16.77
2018-12-30T12:38:31.958Z,24.50
2018-12-30T12:43:50.498Z,16.77
2018-12-30T12:49:08.999Z,20.50
2018-12-30T12:54:32.119Z,23.77
2018-12-30T13:05:20.269Z,20.33
2018-12-30T13:10:38.804Z,15.23
2018-12-30T13:16:03.294Z,14.97
2018-12-30T13:21:17.526Z,24.23
2018-12-30T13:26:35.999Z,19.07
2018-12-30T13:31:54.460Z,32.50
2018-12-30T13:37:13.006Z,21.37
2018-12-30T13:42:31.609Z,24.27
2018-12-30T13:47:50.071Z,14.50
2018-12-30T13:53:08.533Z,17.00
2018-12-30T13:58:27.071Z,18.50
2018-12-30T14:03:45.534Z,22.53
2018-12-30T14:09:17.798Z,21.10
2018-12-30T14:20:48.886Z,22.07
2018-12-30T14:26:07.356Z,21.73
2018-12-30T14:31:25.901Z,30.53
2018-12-30T14:36:44.370Z,21.83
2018-12-30T14:42:02.909Z,24.03
2018-12-30T14:47:21.515Z,25.33
2018-12-30T14:52:40.340Z,30.27
2018-12-30T14:57:58.805Z,25.23
2018-12-30T15:03:17.266Z,25.87
2018-12-30T15:08:35.737Z,21.77
2018-12-30T15:13:54.412Z,27.80
2018-12-30T15:19:12.882Z,21.70
2018-12-30T15:24:31.345Z,24.20
2018-12-30T15:29:49.806Z,21.17
2018-12-30T15:35:08.408Z,24.33
2018-12-30T15:40:26.874Z,29.23
2018-12-30T15:45:45.482Z,34.57
2018-12-30T15:51:04.096Z,28.57
2018-12-30T15:56:22.637Z,41.73
2018-12-30T16:01:41.251Z,28.23
2018-12-30T16:12:32.162Z,29.10
2018-12-30T16:18:10.043Z,30.80
2018-12-30T16:23:28.510Z,19.30
2018-12-30T16:28:47.008Z,24.17
2018-12-30T16:34:05.557Z,25.93
2018-12-30T16:39:24.016Z,28.30
2018-12-30T16:44:42.557Z,39.17
2018-12-30T16:50:01.025Z,27.73
2018-12-30T16:55:19.568Z,34.67
2018-12-30T17:00:38.027Z,33.50
2018-12-30T17:05:56.567Z,41.13
2018-12-30T17:11:15.036Z,42.43
2018-12-30T17:22:06.092Z,36.10
2018-12-30T17:27:24.723Z,31.87
2018-12-30T17:32:43.262Z,34.53
2018-12-30T17:38:01.807Z,37.93
2018-12-30T17:43:20.277Z,37.03
2018-12-30T17:54:15.129Z,39.17
2018-12-30T17:59:29.533Z,41.20
2018-12-30T18:04:47.998Z,47.33
2018-12-30T18:10:46.450Z,53.70
2018-12-30T18:16:05.072Z,54.50
2018-12-30T18:21:23.614Z,59.00
2018-12-30T18:26:42.149Z,59.97
2018-12-30T18:32:00.610Z,54.35
2018-12-30T18:37:19.153Z,53.00
2018-12-30T18:42:37.690Z,58.00
2018-12-30T18:47:56.234Z,50.77
2018-12-30T18:53:14.773Z,53.40
2018-12-30T18:58:33.247Z,50.47
2018-12-30T19:03:51.797Z,49.70
2018-12-30T19:09:10.335Z,44.37
2018-12-30T19:14:28.793Z,42.83
2018-12-30T19:19:47.400Z,43.80
2018-12-30T19:25:45.825Z,41.27
2018-12-30T19:31:04.373Z,43.07
2018-12-30T19:36:23.123Z,44.97
2018-12-30T19:41:41.661Z,52.13
2018-12-30T19:47:00.219Z,52.93
2018-12-30T19:52:18.758Z,52.93
2018-12-30T19:57:37.224Z,62.67
2018-12-30T20:02:55.682Z,54.97
2018-12-30T20:08:14.164Z,60.27
2018-12-30T20:13:32.817Z,68.40
2018-12-30T20:18:51.288Z,66.47
2018-12-30T20:24:09.902Z,82.20
2018-12-30T20:29:28.831Z,84.03
2018-12-30T20:40:17.989Z,82.92
2018-12-30T20:45:36.607Z,83.47
2018-12-30T20:50:55.343Z,67.53
2018-12-30T21:01:48.664Z,54.60
2018-12-30T21:07:07.422Z,45.97
2018-12-30T21:12:25.945Z,39.63
2018-12-30T21:17:44.722Z,38.30
2018-12-30T21:23:03.189Z,41.43
2018-12-30T21:28:21.670Z,38.92
2018-12-30T21:33:40.135Z,36.20
2018-12-30T21:38:58.609Z,40.10
2018-12-30T21:44:17.094Z,41.40
2018-12-30T21:49:35.590Z,38.97
2018-12-30T22:00:43.929Z,40.45
2018-12-30T22:06:21.847Z,39.30
2018-12-30T22:11:40.320Z,42.00
2018-12-30T22:16:58.829Z,39.47
2018-12-30T22:22:17.374Z,36.17
2018-12-30T22:27:35.837Z,35.90
2018-12-30T22:32:54.612Z,34.93
2018-12-30T22:38:13.384Z,38.13
2018-12-30T22:43:31.902Z,34.70
2018-12-30T22:49:09.714Z,34.57
2018-12-30T22:54:28.183Z,37.50
2018-12-30T22:59:47.940Z,42.57
2018-12-30T23:05:07.152Z,40.03
2018-12-30T23:10:25.718Z,39.30
2018-12-30T23:15:44.190Z,35.23
2018-12-30T23:21:02.668Z,36.93
2018-12-30T23:26:21.263Z,34.13
2018-12-30T23:31:39.718Z,42.97
2018-12-30T23:36:58.255Z,43.70
2018-12-30T23:42:16.804Z,45.05
2018-12-30T23:47:35.348Z,40.57
2018-12-30T23:52:53.888Z,38.23
2018-12-30T23:58:12.364Z,35.67
